createdAt,value
2024-01-08T00:01:37.097Z,97650.09
2024-01-08T00:04:07.288Z,97652.88
2024-01-08T00:06:34.208Z,97645.50
2024-01-08T00:09:00.948Z,97648.28
2024-01-08T00:11:27.607Z,97654.03
2024-01-08T00:13:54.233Z,97646.94
2024-01-08T00:16:21.275Z,97648.88
2024-01-08T00:18:48.229Z,97649.59
2024-01-08T00:21:14.797Z,97651.22
2024-01-08T00:23:41.374Z,97653.72
2024-01-08T00:26:07.988Z,97655.38
2024-01-08T00:28:34.465Z,97650.72
2024-01-08T00:31:00.965Z,97650.91
2024-01-08T00:33:27.883Z,97659.31
2024-01-08T00:35:54.557Z,97655.16
2024-01-08T00:38:21.129Z,97662.03
2024-01-08T00:40:48.159Z,97657.28
2024-01-08T00:43:14.735Z,97657.44
2024-01-08T00:45:41.291Z,97648.88
2024-01-08T00:48:07.890Z,97655.09
2024-01-08T00:50:34.575Z,97656.22
2024-01-08T00:53:01.196Z,97658.03
2024-01-08T00:55:27.866Z,97660.84
2024-01-08T00:57:55.756Z,97660.03
2024-01-08T01:00:22.267Z,97652.88
2024-01-08T01:02:49.091Z,97654.41
2024-01-08T01:05:16.047Z,97658.19
2024-01-08T01:07:43.079Z,97661.03
2024-01-08T01:10:09.742Z,97656.91
2024-01-08T01:12:36.234Z,97654.16
2024-01-08T01:15:02.816Z,97662.88
2024-01-08T01:17:29.445Z,97660.53
2024-01-08T01:19:55.984Z,97666.75
2024-01-08T01:22:22.526Z,97660.66
2024-01-08T01:24:48.958Z,97670.66
2024-01-08T01:27:15.447Z,97670.41
2024-01-08T01:29:41.977Z,97670.53
2024-01-08T01:32:08.651Z,97676.25
2024-01-08T01:34:36.205Z,97671.81
2024-01-08T01:37:02.949Z,97676.47
2024-01-08T01:39:30.187Z,97667.75
2024-01-08T01:41:56.680Z,97672.31
2024-01-08T01:44:23.197Z,97675.41
2024-01-08T01:46:50.314Z,97676.94
2024-01-08T01:49:19.041Z,97673.69
2024-01-08T01:51:48.034Z,97671.84
2024-01-08T01:54:23.846Z,97672.41
2024-01-08T01:57:10.657Z,97676.63
2024-01-08T01:59:37.236Z,97678.47
2024-01-08T02:02:05.147Z,97671.19
2024-01-08T02:04:32.105Z,97669.25
2024-01-08T02:07:00.220Z,97663.47
2024-01-08T02:09:27.879Z,97659.81
2024-01-08T02:11:54.983Z,97663.47
2024-01-08T02:14:21.601Z,97657.56
2024-01-08T02:16:49.352Z,97660.72
2024-01-08T02:19:16.156Z,97656.38
2024-01-08T02:21:42.723Z,97655.00
2024-01-08T02:24:09.474Z,97653.03
2024-01-08T02:26:37.812Z,97650.38
2024-01-08T02:29:04.612Z,97651.88
2024-01-08T02:31:32.005Z,97645.94
2024-01-08T02:33:58.597Z,97648.72
2024-01-08T02:36:25.375Z,97646.03
2024-01-08T02:38:51.853Z,97652.16
2024-01-08T02:41:18.404Z,97650.53
2024-01-08T02:43:44.909Z,97650.84
2024-01-08T02:46:11.444Z,97647.63
2024-01-08T02:48:38.017Z,97652.41
2024-01-08T02:51:04.686Z,97648.94
2024-01-08T02:53:31.188Z,97657.56
2024-01-08T02:55:58.058Z,97654.72
2024-01-08T02:58:24.632Z,97655.53
2024-01-08T03:00:51.167Z,97656.81
2024-01-08T03:03:17.708Z,97656.38
2024-01-08T03:05:44.243Z,97661.66
2024-01-08T03:08:10.851Z,97663.47
2024-01-08T03:10:37.389Z,97664.16
2024-01-08T03:13:04.135Z,97676.41
2024-01-08T03:15:30.870Z,97671.41
2024-01-08T03:17:57.355Z,97678.75
2024-01-08T03:20:24.583Z,97674.81
2024-01-08T03:22:53.131Z,97675.91
2024-01-08T03:25:19.740Z,97670.94
2024-01-08T03:27:46.545Z,97675.41
2024-01-08T03:30:13.616Z,97667.91
2024-01-08T03:32:40.482Z,97657.91
2024-01-08T03:35:07.556Z,97661.38
2024-01-08T03:37:34.036Z,97651.94
2024-01-08T03:40:03.178Z,97655.13
2024-01-08T03:42:29.688Z,97660.41
2024-01-08T03:44:56.176Z,97660.03
2024-01-08T03:47:22.687Z,97660.88
2024-01-08T03:49:49.189Z,97662.16
2024-01-08T03:52:15.737Z,97662.53
2024-01-08T03:54:42.229Z,97662.38
2024-01-08T03:57:09.073Z,97659.59
2024-01-08T03:59:35.685Z,97661.38
2024-01-08T04:02:02.368Z,97659.88
2024-01-08T04:04:29.003Z,97660.72
2024-01-08T04:06:56.177Z,97660.38
2024-01-08T04:09:23.679Z,97660.72
2024-01-08T04:11:50.249Z,97658.59
2024-01-08T04:14:16.872Z,97653.19
2024-01-08T04:16:43.430Z,97662.94
2024-01-08T04:19:10.101Z,97664.00
2024-01-08T04:21:36.640Z,97662.06
2024-01-08T04:24:03.373Z,97660.09
2024-01-08T04:26:29.997Z,97665.72
2024-01-08T04:28:56.626Z,97661.09
2024-01-08T04:31:25.903Z,97668.41
2024-01-08T04:33:53.666Z,97673.72
2024-01-08T04:36:20.338Z,97665.50
2024-01-08T04:38:46.894Z,97661.88
2024-01-08T04:41:23.053Z,97665.31
2024-01-08T04:43:50.524Z,97664.81
2024-01-08T04:46:17.352Z,97667.81
2024-01-08T04:48:44.136Z,97678.97
2024-01-08T04:51:21.518Z,97680.38
2024-01-08T04:53:48.028Z,97683.63
2024-01-08T04:56:25.368Z,97685.69
2024-01-08T04:58:55.863Z,97685.69
2024-01-08T05:01:23.215Z,97692.13
2024-01-08T05:03:50.172Z,97691.69
2024-01-08T05:06:17.856Z,97693.44
2024-01-08T05:08:44.394Z,97692.28
2024-01-08T05:11:12.176Z,97702.88
2024-01-08T05:13:40.488Z,97698.44
2024-01-08T05:16:07.473Z,97701.53
2024-01-08T05:18:34.096Z,97694.19
2024-01-08T05:21:00.745Z,97689.66
2024-01-08T05:23:27.460Z,97694.72
2024-01-08T05:25:54.209Z,97703.16
2024-01-08T05:28:20.728Z,97704.38
2024-01-08T05:30:47.413Z,97702.22
2024-01-08T05:33:14.140Z,97707.78
2024-01-08T05:35:42.048Z,97710.97
2024-01-08T05:38:08.796Z,97704.09
2024-01-08T05:40:35.346Z,97700.91
2024-01-08T05:43:02.018Z,97705.91
2024-01-08T05:45:28.493Z,97714.28
2024-01-08T05:47:56.335Z,97707.34
2024-01-08T05:50:28.542Z,97715.50
2024-01-08T05:52:55.543Z,97715.66
2024-01-08T05:55:23.547Z,97718.31
2024-01-08T05:57:50.145Z,97719.44
2024-01-08T06:00:17.874Z,97719.44
2024-01-08T06:02:44.440Z,97722.91
2024-01-08T06:05:13.364Z,97715.72
2024-01-08T06:07:41.168Z,97728.03
2024-01-08T06:10:07.996Z,97727.47
2024-01-08T06:12:34.491Z,97730.53
2024-01-08T06:15:01.176Z,97726.38
2024-01-08T06:17:27.882Z,97732.66
2024-01-08T06:19:54.404Z,97724.88
2024-01-08T06:22:20.939Z,97724.44
2024-01-08T06:24:47.381Z,97729.31
2024-01-08T06:27:13.868Z,97729.19
2024-01-08T06:29:40.367Z,97727.53
2024-01-08T06:32:07.411Z,97723.81
2024-01-08T06:34:34.147Z,97733.16
2024-01-08T06:37:00.708Z,97722.91
2024-01-08T06:39:27.603Z,97730.09
2024-01-08T06:41:54.070Z,97732.59
2024-01-08T06:44:20.748Z,97724.56
2024-01-08T06:46:47.348Z,97728.06
2024-01-08T06:49:14.001Z,97726.38
2024-01-08T06:51:44.113Z,97732.66
2024-01-08T06:54:10.616Z,97728.72
2024-01-08T06:56:37.200Z,97732.13
2024-01-08T06:59:05.100Z,97729.09
2024-01-08T07:01:32.417Z,97735.91
2024-01-08T07:03:58.885Z,97737.41
2024-01-08T07:06:25.610Z,97740.22
2024-01-08T07:08:52.178Z,97740.75
2024-01-08T07:11:23.166Z,97738.72
2024-01-08T07:13:50.551Z,97740.53
2024-01-08T07:16:18.408Z,97741.66
2024-01-08T07:18:46.791Z,97746.94
2024-01-08T07:21:17.892Z,97742.25
2024-01-08T07:23:46.142Z,97751.34
2024-01-08T07:26:15.345Z,97740.53
2024-01-08T07:28:46.235Z,97738.25
2024-01-08T07:31:13.958Z,97741.19
2024-01-08T07:33:42.729Z,97748.59
2024-01-08T07:36:10.397Z,97751.09
2024-01-08T07:38:37.717Z,97755.56
2024-01-08T07:41:05.380Z,97756.53
2024-01-08T07:43:32.074Z,97755.88
2024-01-08T07:45:58.574Z,97764.38
2024-01-08T07:48:25.316Z,97757.38
2024-01-08T07:50:51.902Z,97765.00
2024-01-08T07:53:18.562Z,97767.34
2024-01-08T07:55:45.214Z,97771.50
2024-01-08T07:58:14.766Z,97771.22
2024-01-08T08:00:44.323Z,97773.72
2024-01-08T08:03:10.920Z,97773.03
2024-01-08T08:05:37.633Z,97778.63
2024-01-08T08:08:04.649Z,97779.81
2024-01-08T08:10:31.212Z,97785.72
2024-01-08T08:12:57.741Z,97780.59
2024-01-08T08:15:24.366Z,97775.53
2024-01-08T08:17:52.008Z,97776.13
2024-01-08T08:20:19.502Z,97773.44
2024-01-08T08:22:48.016Z,97775.22
2024-01-08T08:25:17.244Z,97771.00
2024-01-08T08:27:43.744Z,97768.44
2024-01-08T08:30:13.453Z,97772.50
2024-01-08T08:32:43.312Z,97770.59
2024-01-08T08:35:10.009Z,97775.59
2024-01-08T08:37:44.476Z,97775.31
2024-01-08T08:40:19.350Z,97782.63
2024-01-08T08:42:45.864Z,97780.31
2024-01-08T08:45:12.313Z,97783.56
2024-01-08T08:47:38.938Z,97791.19
2024-01-08T08:50:06.233Z,97790.97
2024-01-08T08:52:32.803Z,97784.69
2024-01-08T08:54:59.308Z,97795.38
2024-01-08T08:57:25.882Z,97802.47
2024-01-08T08:59:52.673Z,97800.97
2024-01-08T09:02:19.547Z,97803.47
2024-01-08T09:04:46.254Z,97807.47
2024-01-08T09:07:13.013Z,97802.47
2024-01-08T09:09:39.666Z,97808.75
2024-01-08T09:12:06.583Z,97809.34
2024-01-08T09:14:33.139Z,97816.53
2024-01-08T09:16:59.647Z,97813.22
2024-01-08T09:19:26.346Z,97808.06
2024-01-08T09:21:52.957Z,97818.28
2024-01-08T09:24:19.445Z,97826.22
2024-01-08T09:26:46.615Z,97825.47
2024-01-08T09:29:14.032Z,97828.25
2024-01-08T09:31:40.605Z,97826.31
2024-01-08T09:34:07.282Z,97834.34
2024-01-08T09:36:33.872Z,97831.91
2024-01-08T09:39:00.841Z,97842.41
2024-01-08T09:41:27.427Z,97835.97
2024-01-08T09:43:58.695Z,97843.69
2024-01-08T09:46:28.009Z,97843.63
2024-01-08T09:48:56.064Z,97843.00
2024-01-08T09:51:23.930Z,97841.22
2024-01-08T09:53:51.294Z,97841.91
2024-01-08T09:56:20.166Z,97839.75
2024-01-08T09:58:46.793Z,97837.88
2024-01-08T10:01:13.454Z,97841.75
2024-01-08T10:03:40.033Z,97844.91
2024-01-08T10:06:11.062Z,97838.34
2024-01-08T10:08:37.712Z,97834.69
2024-01-08T10:11:06.081Z,97836.97
2024-01-08T10:13:32.734Z,97839.81
2024-01-08T10:15:59.275Z,97835.91
2024-01-08T10:18:26.166Z,97841.09
2024-01-08T10:21:10.726Z,97844.38
2024-01-08T10:23:37.853Z,97835.91
2024-01-08T10:26:04.746Z,97840.00
2024-01-08T10:28:38.486Z,97830.53
2024-01-08T10:31:09.681Z,97832.88
2024-01-08T10:33:36.828Z,97839.41
2024-01-08T10:36:06.280Z,97830.16
2024-01-08T10:38:34.121Z,97835.25
2024-01-08T10:41:02.546Z,97835.53
2024-01-08T10:43:30.122Z,97836.75
2024-01-08T10:46:01.526Z,97841.00
2024-01-08T10:48:39.812Z,97829.94
2024-01-08T10:51:08.482Z,97833.31
2024-01-08T10:53:41.536Z,97836.69
2024-01-08T10:56:14.099Z,97823.50
2024-01-08T10:58:48.804Z,97834.84
2024-01-08T11:01:15.577Z,97837.94
2024-01-08T11:03:42.222Z,97840.91
2024-01-08T11:06:09.077Z,97839.19
2024-01-08T11:08:35.643Z,97828.66
2024-01-08T11:11:11.918Z,97834.41
2024-01-08T11:13:41.885Z,97828.03
2024-01-08T11:16:09.600Z,97828.66
2024-01-08T11:18:38.954Z,97832.34
2024-01-08T11:21:06.393Z,97822.97
2024-01-08T11:23:41.912Z,97827.81
2024-01-08T11:26:22.332Z,97824.09
2024-01-08T11:29:04.267Z,97814.09
2024-01-08T11:31:49.574Z,97828.56
2024-01-08T11:34:42.684Z,97828.84
2024-01-08T11:37:31.703Z,97827.88
2024-01-08T11:40:01.152Z,97820.03
2024-01-08T11:42:27.896Z,97821.84
2024-01-08T11:44:54.414Z,97813.25
2024-01-08T11:47:21.115Z,97824.53
2024-01-08T11:49:51.075Z,97817.72
2024-01-08T11:52:17.894Z,97817.97
2024-01-08T11:54:49.504Z,97821.09
2024-01-08T11:57:17.294Z,97827.53
2024-01-08T11:59:44.027Z,97834.91
2024-01-08T12:02:19.889Z,97826.75
2024-01-08T12:04:57.072Z,97823.13
2024-01-08T12:07:25.279Z,97820.69
2024-01-08T12:09:52.583Z,97819.19
2024-01-08T12:12:20.116Z,97825.94
2024-01-08T12:14:48.383Z,97823.91
2024-01-08T12:17:19.630Z,97831.81
2024-01-08T12:19:57.386Z,97824.25
2024-01-08T12:22:26.608Z,97819.22
2024-01-08T12:24:56.361Z,97823.56
2024-01-08T12:27:26.601Z,97825.25
2024-01-08T12:29:57.340Z,97827.69
2024-01-08T12:32:26.204Z,97828.31
2024-01-08T12:34:52.846Z,97831.25
2024-01-08T12:37:20.848Z,97826.97
2024-01-08T12:39:48.201Z,97831.16
2024-01-08T12:42:19.025Z,97822.25
2024-01-08T12:44:48.744Z,97821.16
2024-01-08T12:47:15.834Z,97825.59
2024-01-08T12:49:42.757Z,97819.38
2024-01-08T12:52:11.469Z,97822.44
2024-01-08T12:54:41.662Z,97819.66
2024-01-08T12:57:08.326Z,97821.31
2024-01-08T12:59:36.079Z,97825.34
2024-01-08T13:02:03.922Z,97823.81
2024-01-08T13:04:30.810Z,97828.22
2024-01-08T13:06:57.710Z,97826.81
2024-01-08T13:09:24.373Z,97828.66
2024-01-08T13:11:51.069Z,97826.59
2024-01-08T13:14:19.081Z,97835.28
2024-01-08T13:16:49.906Z,97831.41
2024-01-08T13:19:17.221Z,97831.13
2024-01-08T13:21:46.652Z,97833.13
2024-01-08T13:24:16.474Z,97836.78
2024-01-08T13:26:44.715Z,97838.34
2024-01-08T13:29:13.344Z,97840.41
2024-01-08T13:31:41.107Z,97839.13
2024-01-08T13:34:08.107Z,97837.41
2024-01-08T13:36:35.467Z,97838.53
2024-01-08T13:39:02.072Z,97845.19
2024-01-08T13:41:30.025Z,97839.38
2024-01-08T13:43:56.620Z,97841.94
2024-01-08T13:46:24.494Z,97844.22
2024-01-08T13:48:51.171Z,97847.78
2024-01-08T13:51:18.069Z,97853.53
2024-01-08T13:53:44.597Z,97858.38
2024-01-08T13:56:11.192Z,97850.97
2024-01-08T13:58:37.684Z,97841.50
2024-01-08T14:01:05.180Z,97847.34
2024-01-08T14:03:31.905Z,97845.59
2024-01-08T14:05:58.617Z,97833.66
2024-01-08T14:08:25.248Z,97844.25
2024-01-08T14:10:51.952Z,97847.25
2024-01-08T14:13:18.842Z,97838.22
2024-01-08T14:15:45.337Z,97847.31
2024-01-08T14:18:12.964Z,97850.41
2024-01-08T14:20:39.780Z,97850.97
2024-01-08T14:23:06.502Z,97853.28
2024-01-08T14:25:33.142Z,97872.88
2024-01-08T14:27:59.618Z,97867.38
2024-01-08T14:30:26.327Z,97869.19
2024-01-08T14:32:53.876Z,97870.19
2024-01-08T14:35:20.967Z,97881.38
2024-01-08T14:37:49.157Z,97877.53
2024-01-08T14:40:20.872Z,97878.38
2024-01-08T14:42:47.414Z,97883.44
2024-01-08T14:45:14.978Z,97880.88
2024-01-08T14:47:42.674Z,97881.28
2024-01-08T14:50:11.858Z,97889.41
2024-01-08T14:52:39.872Z,97883.69
2024-01-08T14:55:06.660Z,97885.44
2024-01-08T14:57:33.266Z,97890.34
2024-01-08T15:00:01.154Z,97887.97
2024-01-08T15:02:27.930Z,97879.16
2024-01-08T15:04:54.478Z,97882.94
2024-01-08T15:07:21.018Z,97891.16
2024-01-08T15:09:48.461Z,97891.88
2024-01-08T15:12:15.142Z,97888.56
2024-01-08T15:14:41.776Z,97889.56
2024-01-08T15:17:08.428Z,97891.75
2024-01-08T15:19:35.193Z,97894.28
2024-01-08T15:22:01.689Z,97896.50
2024-01-08T15:24:30.445Z,97894.53
2024-01-08T15:26:58.706Z,97899.53
2024-01-08T15:29:25.258Z,97899.56
2024-01-08T15:31:51.771Z,97914.03
2024-01-08T15:34:18.324Z,97900.41
2024-01-08T15:36:44.797Z,97907.81
2024-01-08T15:39:15.214Z,97904.03
2024-01-08T15:41:41.941Z,97908.78
2024-01-08T15:44:08.588Z,97916.44
2024-01-08T15:46:42.431Z,97910.31
2024-01-08T15:49:09.597Z,97914.47
2024-01-08T15:51:36.250Z,97910.84
2024-01-08T15:54:02.737Z,97913.78
2024-01-08T15:56:29.296Z,97916.28
2024-01-08T15:58:58.672Z,97919.63
2024-01-08T16:01:26.759Z,97921.28
2024-01-08T16:03:53.971Z,97925.31
2024-01-08T16:06:23.677Z,97917.38
2024-01-08T16:08:50.535Z,97918.22
2024-01-08T16:11:18.286Z,97925.56
2024-01-08T16:13:46.586Z,97926.00
2024-01-08T16:16:13.184Z,97932.66
2024-01-08T16:18:41.833Z,97938.81
2024-01-08T16:21:08.740Z,97934.63
2024-01-08T16:23:36.188Z,97934.78
2024-01-08T16:26:03.412Z,97938.94
2024-01-08T16:28:30.090Z,97939.22
2024-01-08T16:30:56.776Z,97953.09
2024-01-08T16:33:24.523Z,97952.72
2024-01-08T16:35:52.328Z,97952.97
2024-01-08T16:38:19.829Z,97953.97
2024-01-08T16:40:46.494Z,97957.44
2024-01-08T16:43:13.058Z,97958.97
2024-01-08T16:45:39.585Z,97956.06
2024-01-08T16:48:06.893Z,97965.66
2024-01-08T16:50:33.575Z,97970.38
2024-01-08T16:53:00.132Z,97966.91
2024-01-08T16:55:27.011Z,97977.72
2024-01-08T16:57:53.502Z,97980.47
2024-01-08T17:00:21.260Z,97982.72
2024-01-08T17:02:47.867Z,97992.28
2024-01-08T17:05:14.630Z,97988.97
2024-01-08T17:07:41.268Z,97998.69
2024-01-08T17:10:09.589Z,97998.69
2024-01-08T17:12:36.087Z,97994.94
2024-01-08T17:15:02.723Z,97997.28
2024-01-08T17:17:29.269Z,98004.91
2024-01-08T17:19:56.000Z,98007.97
2024-01-08T17:22:22.614Z,98007.97
2024-01-08T17:24:49.079Z,98013.25
2024-01-08T17:27:15.564Z,98014.91
2024-01-08T17:29:43.739Z,98015.34
2024-01-08T17:32:10.721Z,98019.94
2024-01-08T17:34:37.468Z,98023.09
2024-01-08T17:37:04.222Z,98026.72
2024-01-08T17:39:30.898Z,98021.81
2024-01-08T17:41:58.577Z,98022.66
2024-01-08T17:44:26.551Z,98023.78
2024-01-08T17:46:57.330Z,98021.69
2024-01-08T17:49:23.950Z,98021.28
2024-01-08T17:51:50.543Z,98021.34
2024-01-08T17:54:18.377Z,98020.78
2024-01-08T17:56:46.131Z,98025.22
2024-01-08T17:59:12.833Z,98023.81
2024-01-08T18:01:39.449Z,98015.22
2024-01-08T18:04:10.075Z,98024.16
2024-01-08T18:06:38.985Z,98025.09
2024-01-08T18:09:05.652Z,98029.16
2024-01-08T18:11:35.265Z,98027.88
2024-01-08T18:14:01.815Z,98036.06
2024-01-08T18:16:28.287Z,98029.25
2024-01-08T18:18:55.046Z,98032.28
2024-01-08T18:21:25.859Z,98038.41
2024-01-08T18:23:52.626Z,98039.09
2024-01-08T18:26:19.835Z,98041.72
2024-01-08T18:28:46.507Z,98036.44
2024-01-08T18:31:13.027Z,98044.63
2024-01-08T18:33:40.216Z,98047.81
2024-01-08T18:36:09.151Z,98047.06
2024-01-08T18:38:38.269Z,98046.94
2024-01-08T18:41:08.141Z,98042.28
2024-01-08T18:43:34.717Z,98054.19
2024-01-08T18:46:02.476Z,98041.16
2024-01-08T18:48:29.551Z,98044.34
2024-01-08T18:50:58.953Z,98046.75
2024-01-08T18:53:35.970Z,98050.72
2024-01-08T18:56:03.035Z,98042.53
2024-01-08T18:58:29.585Z,98049.50
2024-01-08T19:00:58.518Z,98055.22
2024-01-08T19:03:25.227Z,98055.72
2024-01-08T19:05:51.759Z,98058.34
2024-01-08T19:08:18.862Z,98055.59
2024-01-08T19:10:46.947Z,98067.00
2024-01-08T19:13:16.666Z,98068.84
2024-01-08T19:15:43.879Z,98063.38
2024-01-08T19:18:10.632Z,98069.16
2024-01-08T19:20:37.243Z,98064.06
2024-01-08T19:23:04.697Z,98067.94
2024-01-08T19:25:31.605Z,98070.00
2024-01-08T19:27:58.171Z,98067.50
2024-01-08T19:30:24.749Z,98080.88
2024-01-08T19:32:51.431Z,98075.22
2024-01-08T19:35:18.130Z,98074.56
2024-01-08T19:37:44.765Z,98082.84
2024-01-08T19:40:11.847Z,98069.94
2024-01-08T19:42:38.447Z,98079.56
2024-01-08T19:45:05.743Z,98079.47
2024-01-08T19:47:32.979Z,98087.16
2024-01-08T19:50:00.131Z,98090.75
2024-01-08T19:52:26.717Z,98091.28
2024-01-08T19:54:54.979Z,98087.00
2024-01-08T19:57:21.669Z,98086.53
2024-01-08T19:59:48.272Z,98089.50
2024-01-08T20:02:14.947Z,98088.53
2024-01-08T20:04:41.582Z,98084.72
2024-01-08T20:07:08.252Z,98085.97
2024-01-08T20:09:35.149Z,98096.16
2024-01-08T20:12:05.876Z,98092.09
2024-01-08T20:14:32.943Z,98089.47
2024-01-08T20:16:59.953Z,98100.28
2024-01-08T20:19:26.750Z,98103.69
2024-01-08T20:21:53.344Z,98103.59
2024-01-08T20:24:19.847Z,98099.66
2024-01-08T20:26:46.783Z,98106.28
2024-01-08T20:29:13.700Z,98101.50
2024-01-08T20:31:40.258Z,98105.94
2024-01-08T20:34:06.928Z,98109.50
2024-01-08T20:36:33.512Z,98108.56
2024-01-08T20:38:59.933Z,98104.25
2024-01-08T20:41:28.620Z,98107.16
2024-01-08T20:43:55.151Z,98103.91
2024-01-08T20:46:21.939Z,98109.78
2024-01-08T20:48:48.540Z,98107.38
2024-01-08T20:51:15.104Z,98106.94
2024-01-08T20:53:41.752Z,98117.56
2024-01-08T20:56:09.824Z,98110.84
2024-01-08T20:58:36.391Z,98101.03
2024-01-08T21:01:02.983Z,98103.66
2024-01-08T21:03:29.564Z,98102.25
2024-01-08T21:05:56.309Z,98093.53
2024-01-08T21:08:23.033Z,98100.56
2024-01-08T21:10:49.753Z,98105.22
2024-01-08T21:13:16.660Z,98105.38
2024-01-08T21:15:43.750Z,98102.88
2024-01-08T21:18:10.680Z,98102.16
2024-01-08T21:20:37.494Z,98108.88
2024-01-08T21:23:04.642Z,98111.97
2024-01-08T21:25:31.243Z,98107.78
2024-01-08T21:27:58.655Z,98109.22
2024-01-08T21:30:26.341Z,98102.63
2024-01-08T21:32:53.863Z,98104.56
2024-01-08T21:35:20.539Z,98111.72
2024-01-08T21:37:47.059Z,98116.41
2024-01-08T21:40:13.570Z,98110.28
2024-01-08T21:42:40.114Z,98106.63
2024-01-08T21:45:06.908Z,98110.78
2024-01-08T21:47:33.537Z,98103.84
2024-01-08T21:50:00.974Z,98110.44
2024-01-08T21:52:27.996Z,98107.06
2024-01-08T21:54:54.594Z,98107.31
2024-01-08T21:57:21.162Z,98105.16
2024-01-08T21:59:47.754Z,98101.81
2024-01-08T22:02:14.433Z,98099.16
2024-01-08T22:04:41.234Z,98108.66
2024-01-08T22:07:07.708Z,98103.84
2024-01-08T22:09:34.304Z,98098.69
2024-01-08T22:12:00.901Z,98100.84
2024-01-08T22:14:27.584Z,98103.00
2024-01-08T22:16:54.861Z,98096.78
2024-01-08T22:19:21.884Z,98102.16
2024-01-08T22:21:48.680Z,98102.63
2024-01-08T22:24:15.401Z,98100.38
2024-01-08T22:26:41.998Z,98100.50
2024-01-08T22:29:10.250Z,98105.63
2024-01-08T22:31:37.034Z,98109.22
2024-01-08T22:34:03.653Z,98111.34
2024-01-08T22:36:30.666Z,98106.81
2024-01-08T22:38:57.220Z,98113.06
2024-01-08T22:41:23.741Z,98116.50
2024-01-08T22:43:50.280Z,98118.31
2024-01-08T22:46:17.040Z,98109.56
2024-01-08T22:48:46.555Z,98105.50
2024-01-08T22:51:13.211Z,98102.97
2024-01-08T22:53:39.774Z,98097.84
2024-01-08T22:56:06.677Z,98101.66
2024-01-08T22:58:33.287Z,98104.28
2024-01-08T23:00:59.811Z,98099.88
2024-01-08T23:03:26.941Z,98092.94
2024-01-08T23:05:53.573Z,98098.31
2024-01-08T23:08:20.197Z,98089.00
2024-01-08T23:10:46.730Z,98088.03
2024-01-08T23:13:13.188Z,98083.25
2024-01-08T23:15:39.649Z,98090.44
2024-01-08T23:18:07.271Z,98089.00
2024-01-08T23:20:35.920Z,98095.91
2024-01-08T23:23:02.728Z,98089.84
2024-01-08T23:25:29.529Z,98087.31
2024-01-08T23:27:56.200Z,98099.25
2024-01-08T23:30:22.983Z,98091.09
2024-01-08T23:32:49.667Z,98094.69
2024-01-08T23:35:16.489Z,98091.09
2024-01-08T23:37:43.069Z,98088.00
2024-01-08T23:40:10.551Z,98099.47
2024-01-08T23:42:40.468Z,98101.63
2024-01-08T23:45:07.444Z,98097.44
2024-01-08T23:47:34.041Z,98103.88
2024-01-08T23:50:01.801Z,98099.22
2024-01-08T23:52:30.088Z,98103.88
2024-01-08T23:54:57.093Z,98104.31
2024-01-08T23:57:23.588Z,98105.16
2024-01-08T23:59:50.835Z,98099.91
